Time;durP1;ratioP1;P1;durP2;ratioP2;P2;SDS_P1;SDS_P2;PMS_P1;PMS_P2;Temp;Humidity;BMP_temperature;BMP_pressure;BME280_temperature;BME280_humidity;BME280_pressure;Samples;Min_cycle;Max_cycle;Signal;HPM_P1;HPM_P2
2021/06/21 00:01:15;;;;;;;;;;;25.80;71.80;;;;;;5139014;27;19911;-42
2021/06/21 00:03:41;;;;;;;;;;;25.80;71.80;;;;;;5126611;28;19918;-42
2021/06/21 00:06:07;;;;;;;;;;;25.80;71.90;;;;;;5126870;28;19907;-42
2021/06/21 00:08:33;;;;;;;;;;;25.80;71.80;;;;;;5126604;28;19904;-42
2021/06/21 00:10:58;;;;;;;;;;;25.80;72.00;;;;;;5126733;28;19908;-43
2021/06/21 00:13:24;;;;;;;;;;;25.80;72.00;;;;;;5126279;28;19908;-43
2021/06/21 00:15:52;;;;;;;;;;;25.80;72.20;;;;;;5125697;28;19919;-42
2021/06/21 00:18:18;;;;;;;;;;;25.80;72.20;;;;;;5126299;28;19943;-41
2021/06/21 00:20:46;;;;;;;;;;;25.80;72.10;;;;;;5126241;28;19915;-42
2021/06/21 00:23:12;;;;;;;;;;;25.80;72.10;;;;;;5126218;28;19986;-47
2021/06/21 00:25:38;;;;;;;;;;;25.80;72.10;;;;;;5126304;28;19914;-43
2021/06/21 00:28:04;;;;;;;;;;;25.80;72.10;;;;;;5126400;28;19911;-41
2021/06/21 00:30:29;;;;;;;;;;;25.80;72.20;;;;;;5125712;28;19907;-41
2021/06/21 00:32:55;;;;;;;;;;;25.80;72.20;;;;;;5126306;28;19907;-42
2021/06/21 00:35:21;;;;;;;;;;;25.80;72.20;;;;;;5125742;28;19911;-43
2021/06/21 00:37:47;;;;;;;;;;;25.80;72.20;;;;;;5126066;28;19934;-43
2021/06/21 00:40:14;;;;;;;;;;;25.80;72.30;;;;;;5126030;28;19904;-41
2021/06/21 00:42:40;;;;;;;;;;;25.80;72.30;;;;;;5125698;28;19943;-42
2021/06/21 00:45:07;;;;;;;;;;;25.80;72.20;;;;;;5125197;28;19903;-41
2021/06/21 00:47:33;;;;;;;;;;;25.80;72.10;;;;;;5131256;27;20005;-42
2021/06/21 00:49:58;;;;;;;;;;;25.80;72.10;;;;;;5142389;27;19915;-42
2021/06/21 00:52:24;;;;;;;;;;;25.80;72.10;;;;;;5138223;27;19907;-42
2021/06/21 00:54:59;;;;;;;;;;;25.80;72.00;;;;;;5106941;28;19908;-41
2021/06/21 00:57:29;;;;;;;;;;;25.80;72.20;;;;;;5108643;28;19912;-42
2021/06/21 00:59:56;;;;;;;;;;;25.80;72.10;;;;;;5125038;28;19926;-42
2021/06/21 01:02:22;;;;;;;;;;;25.80;72.00;;;;;;5124663;28;19903;-41
2021/06/21 01:04:47;;;;;;;;;;;25.80;72.00;;;;;;5106495;28;19907;-42
2021/06/21 01:07:13;;;;;;;;;;;25.80;72.10;;;;;;5125409;28;19954;-42
2021/06/21 01:09:39;;;;;;;;;;;25.80;72.30;;;;;;5125363;28;19908;-42
2021/06/21 01:12:10;;;;;;;;;;;25.80;72.30;;;;;;5125373;28;19915;-41
2021/06/21 01:14:47;;;;;;;;;;;25.80;72.30;;;;;;5106095;28;19996;-42
2021/06/21 01:17:18;;;;;;;;;;;25.80;72.30;;;;;;5106840;28;20625;-43
2021/06/21 01:19:50;;;;;;;;;;;25.80;72.30;;;;;;5125041;28;19939;-41
2021/06/21 01:22:23;;;;;;;;;;;25.80;72.30;;;;;;5125147;28;19957;-41
2021/06/21 01:24:49;;;;;;;;;;;25.70;72.30;;;;;;5106437;28;19930;-41
2021/06/21 01:27:30;;;;;;;;;;;25.70;72.30;;;;;;5125166;28;19907;-41
2021/06/21 01:29:59;;;;;;;;;;;25.70;72.30;;;;;;5124629;28;19908;-41
2021/06/21 01:32:33;;;;;;;;;;;25.70;72.30;;;;;;5124907;28;19946;-43
2021/06/21 01:34:58;;;;;;;;;;;25.70;72.30;;;;;;5106288;28;19908;-41
2021/06/21 01:37:24;;;;;;;;;;;25.70;72.30;;;;;;5090556;28;19948;-42
2021/06/21 01:39:54;;;;;;;;;;;25.70;72.30;;;;;;5086094;28;19908;-43
2021/06/21 01:42:20;;;;;;;;;;;25.70;72.30;;;;;;5085990;28;19947;-42
2021/06/21 01:44:57;;;;;;;;;;;25.70;72.20;;;;;;5085766;28;19904;-41
2021/06/21 01:47:23;;;;;;;;;;;25.70;72.30;;;;;;5085830;28;20634;-41
2021/06/21 01:49:50;;;;;;;;;;;25.70;72.30;;;;;;5104034;28;19929;-42
2021/06/21 01:52:15;;;;;;;;;;;25.60;72.20;;;;;;5104117;28;19999;-41
2021/06/21 01:54:43;;;;;;;;;;;25.70;72.30;;;;;;5100348;28;19943;-41
2021/06/21 01:57:09;;;;;;;;;;;25.70;72.40;;;;;;5141125;27;19915;-41
2021/06/21 01:59:35;;;;;;;;;;;25.60;72.20;;;;;;5144355;27;19936;-41
2021/06/21 02:02:02;;;;;;;;;;;25.60;72.20;;;;;;5130100;27;19912;-41
2021/06/21 02:04:29;;;;;;;;;;;25.60;72.10;;;;;;5105565;28;19903;-42
2021/06/21 02:06:55;;;;;;;;;;;25.60;72.20;;;;;;5124178;28;19911;-42
2021/06/21 02:09:24;;;;;;;;;;;25.60;72.30;;;;;;5105613;28;19908;-41
2021/06/21 02:11:50;;;;;;;;;;;25.60;72.30;;;;;;5106028;28;19915;-43
2021/06/21 02:14:18;;;;;;;;;;;25.60;72.50;;;;;;5124080;28;19903;-41
2021/06/21 02:16:44;;;;;;;;;;;25.60;72.30;;;;;;5104960;28;19938;-41
2021/06/21 02:19:10;;;;;;;;;;;25.60;72.50;;;;;;5123130;28;20395;-41
2021/06/21 02:21:36;;;;;;;;;;;25.60;72.50;;;;;;5105377;28;19904;-41
2021/06/21 02:24:02;;;;;;;;;;;25.60;72.50;;;;;;5105643;28;19918;-42
2021/06/21 02:26:28;;;;;;;;;;;25.60;72.50;;;;;;5124042;28;19958;-42
2021/06/21 02:28:55;;;;;;;;;;;25.60;72.50;;;;;;5105093;28;19908;-40
2021/06/21 02:31:21;;;;;;;;;;;25.60;72.50;;;;;;5105249;28;19908;-41
2021/06/21 02:33:47;;;;;;;;;;;25.60;72.30;;;;;;5123677;28;19933;-41
2021/06/21 02:36:13;;;;;;;;;;;25.50;72.20;;;;;;5123678;28;19912;-43
2021/06/21 02:38:39;;;;;;;;;;;25.50;72.10;;;;;;5123782;28;19907;-41
2021/06/21 02:41:05;;;;;;;;;;;25.50;72.10;;;;;;5116894;28;19908;-42
2021/06/21 02:43:31;;;;;;;;;;;25.50;72.00;;;;;;5103416;28;19912;-42
2021/06/21 02:45:57;;;;;;;;;;;25.50;71.90;;;;;;5102728;28;19911;-42
2021/06/21 02:48:23;;;;;;;;;;;25.50;71.80;;;;;;5126058;27;20508;-43
2021/06/21 02:50:49;;;;;;;;;;;25.50;71.70;;;;;;5127004;27;19908;-43
2021/06/21 02:53:30;;;;;;;;;;;25.50;71.70;;;;;;5087973;28;19908;-41
2021/06/21 02:56:03;;;;;;;;;;;25.50;71.70;;;;;;5112154;28;19934;-43
2021/06/21 02:58:31;;;;;;;;;;;25.50;71.70;;;;;;5122534;28;19920;-41
2021/06/21 03:00:58;;;;;;;;;;;25.50;71.60;;;;;;5122654;28;19920;-42
2021/06/21 03:03:25;;;;;;;;;;;25.40;71.50;;;;;;5105404;28;19908;-41
2021/06/21 03:05:51;;;;;;;;;;;25.40;71.60;;;;;;5105031;28;19904;-41
2021/06/21 03:08:17;;;;;;;;;;;25.40;71.50;;;;;;5105155;28;19929;-41
2021/06/21 03:10:43;;;;;;;;;;;25.40;71.60;;;;;;5104808;28;19943;-41
2021/06/21 03:13:09;;;;;;;;;;;25.40;71.60;;;;;;5105343;28;19975;-43
2021/06/21 03:15:35;;;;;;;;;;;25.40;71.60;;;;;;5104588;28;19914;-41
2021/06/21 03:18:01;;;;;;;;;;;25.40;71.60;;;;;;5104976;28;19935;-42
2021/06/21 03:20:27;;;;;;;;;;;25.40;71.50;;;;;;5104793;28;19943;-42
2021/06/21 03:22:59;;;;;;;;;;;25.40;71.50;;;;;;5123468;28;19914;-42
2021/06/21 03:25:26;;;;;;;;;;;25.40;71.60;;;;;;5123365;28;19907;-42
2021/06/21 03:27:52;;;;;;;;;;;25.40;71.50;;;;;;5126118;28;20271;-43
2021/06/21 03:30:18;;;;;;;;;;;25.40;71.40;;;;;;5126809;28;19935;-42
2021/06/21 03:32:47;;;;;;;;;;;25.40;71.50;;;;;;5127516;28;19911;-42
2021/06/21 03:35:13;;;;;;;;;;;25.30;71.40;;;;;;5127352;28;19903;-42
2021/06/21 03:37:39;;;;;;;;;;;25.30;71.30;;;;;;5127301;28;19916;-43
2021/06/21 03:40:06;;;;;;;;;;;25.30;71.40;;;;;;5126931;28;19903;-41
2021/06/21 03:42:32;;;;;;;;;;;25.30;71.40;;;;;;5126834;28;20005;-42
2021/06/21 03:44:58;;;;;;;;;;;25.30;71.40;;;;;;5126581;28;19904;-41
2021/06/21 03:47:24;;;;;;;;;;;25.30;71.40;;;;;;5133249;27;19914;-41
2021/06/21 03:49:49;;;;;;;;;;;25.30;71.40;;;;;;5135909;27;19914;-41
2021/06/21 03:52:15;;;;;;;;;;;25.30;71.40;;;;;;5126801;28;19911;-43
2021/06/21 03:54:41;;;;;;;;;;;25.30;71.40;;;;;;5126911;28;19918;-41
2021/06/21 03:57:07;;;;;;;;;;;25.20;71.30;;;;;;5126736;28;19911;-43
2021/06/21 03:59:33;;;;;;;;;;;25.20;71.40;;;;;;5126335;28;19915;-44
2021/06/21 04:02:00;;;;;;;;;;;25.20;71.30;;;;;;5126317;28;19950;-43
2021/06/21 04:04:26;;;;;;;;;;;25.20;71.30;;;;;;5126896;28;19951;-40
2021/06/21 04:06:52;;;;;;;;;;;25.20;71.20;;;;;;5126779;28;19914;-42
2021/06/21 04:09:18;;;;;;;;;;;25.20;71.20;;;;;;5126650;28;19907;-42
2021/06/21 04:11:44;;;;;;;;;;;25.20;71.30;;;;;;5126227;28;19904;-41
2021/06/21 04:14:10;;;;;;;;;;;25.20;71.20;;;;;;5126435;28;19912;-41
2021/06/21 04:16:36;;;;;;;;;;;25.20;71.10;;;;;;5126117;28;19991;-43
2021/06/21 04:19:02;;;;;;;;;;;25.20;71.20;;;;;;5126473;28;19954;-43
2021/06/21 04:21:27;;;;;;;;;;;25.20;71.10;;;;;;5125355;28;19903;-41
2021/06/21 04:23:54;;;;;;;;;;;25.10;71.10;;;;;;5126343;28;19929;-41
2021/06/21 04:26:20;;;;;;;;;;;25.10;71.10;;;;;;5126422;28;20335;-41
2021/06/21 04:28:47;;;;;;;;;;;25.10;71.10;;;;;;5126086;28;19903;-43
2021/06/21 04:31:13;;;;;;;;;;;25.10;71.10;;;;;;5125530;28;19938;-41
2021/06/21 04:33:39;;;;;;;;;;;25.10;71.20;;;;;;5126418;28;19907;-41
2021/06/21 04:36:05;;;;;;;;;;;25.10;71.20;;;;;;5126018;28;19939;-41
2021/06/21 04:38:30;;;;;;;;;;;25.10;71.20;;;;;;5125562;28;19907;-43
2021/06/21 04:40:56;;;;;;;;;;;25.10;71.20;;;;;;5120571;28;19994;-41
2021/06/21 04:43:22;;;;;;;;;;;25.00;71.20;;;;;;5105690;28;19904;-41
2021/06/21 04:45:48;;;;;;;;;;;25.10;71.20;;;;;;5106100;28;20635;-41
2021/06/21 04:48:14;;;;;;;;;;;25.00;71.10;;;;;;5125258;28;19943;-42
2021/06/21 04:50:41;;;;;;;;;;;25.00;71.10;;;;;;5126808;27;20496;-42
2021/06/21 04:53:09;;;;;;;;;;;25.00;71.10;;;;;;5139301;27;19904;-42
2021/06/21 04:55:35;;;;;;;;;;;25.00;71.20;;;;;;5125662;28;19907;-42
2021/06/21 04:58:01;;;;;;;;;;;25.00;71.10;;;;;;5125011;28;19918;-41
2021/06/21 05:00:27;;;;;;;;;;;25.00;71.10;;;;;;5123720;28;19920;-42
2021/06/21 05:02:53;;;;;;;;;;;25.00;71.10;;;;;;5105177;28;19914;-42
2021/06/21 05:05:19;;;;;;;;;;;25.00;71.20;;;;;;5105128;28;20424;-43
2021/06/21 05:07:48;;;;;;;;;;;25.00;71.80;;;;;;5104955;28;19915;-41
2021/06/21 05:10:15;;;;;;;;;;;25.00;71.10;;;;;;5105205;28;20002;-42
2021/06/21 05:12:41;;;;;;;;;;;24.90;71.00;;;;;;5104434;28;19911;-42
2021/06/21 05:15:07;;;;;;;;;;;24.90;71.00;;;;;;5086561;28;19999;-41
2021/06/21 05:17:33;;;;;;;;;;;24.90;71.00;;;;;;5105947;28;19954;-42
2021/06/21 05:19:59;;;;;;;;;;;24.90;71.00;;;;;;5125238;28;19907;-42
2021/06/21 05:22:25;;;;;;;;;;;24.90;71.00;;;;;;5125114;28;19915;-42
2021/06/21 05:24:51;;;;;;;;;;;24.80;70.90;;;;;;5125278;28;19904;-42
2021/06/21 05:27:17;;;;;;;;;;;24.90;71.10;;;;;;5125153;28;19950;-42
2021/06/21 05:29:43;;;;;;;;;;;24.90;71.00;;;;;;5124853;28;20349;-41
2021/06/21 05:32:08;;;;;;;;;;;24.80;70.90;;;;;;5124449;28;19914;-42
2021/06/21 05:34:35;;;;;;;;;;;24.80;71.00;;;;;;5124843;28;19907;-43
2021/06/21 05:37:01;;;;;;;;;;;24.80;71.10;;;;;;5124419;28;19912;-42
2021/06/21 05:39:26;;;;;;;;;;;24.80;71.00;;;;;;5124857;28;19908;-42
2021/06/21 05:41:52;;;;;;;;;;;24.80;71.10;;;;;;5111085;28;19915;-42
2021/06/21 05:44:18;;;;;;;;;;;24.80;71.10;;;;;;5104542;28;19904;-42
2021/06/21 05:46:45;;;;;;;;;;;24.80;71.10;;;;;;5106832;27;19912;-41
2021/06/21 05:49:11;;;;;;;;;;;24.80;71.00;;;;;;5136463;27;20073;-42
2021/06/21 05:51:37;;;;;;;;;;;24.80;71.00;;;;;;5123583;28;19904;-41
2021/06/21 05:54:03;;;;;;;;;;;24.80;71.10;;;;;;5124636;28;19903;-43
2021/06/21 05:56:29;;;;;;;;;;;24.80;71.00;;;;;;5124701;28;19920;-42
2021/06/21 05:58:55;;;;;;;;;;;24.80;71.10;;;;;;5112687;28;19908;-43
2021/06/21 06:01:21;;;;;;;;;;;24.80;71.10;;;;;;5103723;28;19912;-42
2021/06/21 06:03:47;;;;;;;;;;;24.70;70.90;;;;;;5103901;28;19930;-42
2021/06/21 06:06:13;;;;;;;;;;;24.70;70.90;;;;;;5103772;28;19946;-42
2021/06/21 06:08:38;;;;;;;;;;;24.70;71.00;;;;;;5104132;28;19929;-42
2021/06/21 06:11:04;;;;;;;;;;;24.70;70.90;;;;;;5110390;28;19908;-43
2021/06/21 06:13:30;;;;;;;;;;;24.70;70.90;;;;;;5124026;28;19911;-42
2021/06/21 06:15:56;;;;;;;;;;;24.70;71.00;;;;;;5123925;28;19912;-42
2021/06/21 06:18:22;;;;;;;;;;;24.70;70.90;;;;;;5123018;28;19940;-41
2021/06/21 06:20:48;;;;;;;;;;;24.70;70.90;;;;;;5124204;28;19946;-42
2021/06/21 06:23:15;;;;;;;;;;;24.70;71.60;;;;;;5123842;28;20371;-42
2021/06/21 06:25:41;;;;;;;;;;;24.60;70.90;;;;;;5124177;28;20460;-43
2021/06/21 06:28:07;;;;;;;;;;;24.60;70.90;;;;;;5123943;28;19911;-41
2021/06/21 06:30:33;;;;;;;;;;;24.60;70.90;;;;;;5123550;28;19908;-43
2021/06/21 06:32:58;;;;;;;;;;;24.60;70.90;;;;;;5123831;28;19903;-42
2021/06/21 06:35:24;;;;;;;;;;;24.60;70.90;;;;;;5123871;28;19939;-41
2021/06/21 06:37:50;;;;;;;;;;;24.60;70.90;;;;;;5123271;28;19915;-43
2021/06/21 06:40:16;;;;;;;;;;;24.60;71.00;;;;;;5123869;28;19963;-42
2021/06/21 06:42:43;;;;;;;;;;;24.60;71.00;;;;;;5123570;28;19903;-42
2021/06/21 06:45:09;;;;;;;;;;;24.60;71.00;;;;;;5123704;28;19992;-42
2021/06/21 06:47:35;;;;;;;;;;;24.60;71.00;;;;;;5123305;28;19908;-41
2021/06/21 06:50:01;;;;;;;;;;;24.60;71.00;;;;;;5129494;27;19904;-43
2021/06/21 06:52:27;;;;;;;;;;;24.50;70.90;;;;;;5123311;28;19965;-43
2021/06/21 06:57:38;;;;;;;;;;;24.50;71.00;;;;;;5122954;28;19919;-41
2021/06/21 07:00:05;;;;;;;;;;;24.50;71.00;;;;;;5102887;28;19920;-43
2021/06/21 07:02:31;;;;;;;;;;;24.50;70.90;;;;;;5107269;28;19943;-41
2021/06/21 07:04:56;;;;;;;;;;;24.50;71.00;;;;;;5110002;28;19911;-42
2021/06/21 07:07:23;;;;;;;;;;;24.50;71.00;;;;;;5120159;28;19971;-42
2021/06/21 07:09:48;;;;;;;;;;;24.50;71.00;;;;;;5130373;28;19950;-43
2021/06/21 07:12:14;;;;;;;;;;;24.50;71.00;;;;;;5130232;28;19907;-42
2021/06/21 07:14:40;;;;;;;;;;;24.50;71.00;;;;;;5130132;28;19946;-42
2021/06/21 07:17:06;;;;;;;;;;;24.50;71.00;;;;;;5130075;28;19915;-43
2021/06/21 07:19:32;;;;;;;;;;;24.50;70.90;;;;;;5130184;28;19911;-42
2021/06/21 07:21:59;;;;;;;;;;;24.50;71.00;;;;;;5130301;28;19915;-43
2021/06/21 07:24:24;;;;;;;;;;;24.40;71.00;;;;;;5129991;28;19935;-42
2021/06/21 07:26:50;;;;;;;;;;;24.40;70.90;;;;;;5130239;28;19907;-42
2021/06/21 07:29:16;;;;;;;;;;;24.40;70.90;;;;;;5130070;28;19910;-42
2021/06/21 07:31:43;;;;;;;;;;;24.40;71.00;;;;;;5129454;28;19915;-42
2021/06/21 07:34:09;;;;;;;;;;;24.40;70.90;;;;;;5129936;28;19908;-42
2021/06/21 07:36:34;;;;;;;;;;;24.40;71.00;;;;;;5130334;28;19912;-42
2021/06/21 07:39:00;;;;;;;;;;;24.40;71.00;;;;;;5130271;28;20401;-42
2021/06/21 07:41:26;;;;;;;;;;;24.30;71.00;;;;;;5130104;28;19907;-42
2021/06/21 07:43:52;;;;;;;;;;;24.30;71.00;;;;;;5129953;28;19929;-41
2021/06/21 07:46:18;;;;;;;;;;;24.30;71.00;;;;;;5129948;28;20355;-43
2021/06/21 07:48:44;;;;;;;;;;;24.30;71.00;;;;;;5144005;27;19979;-42
2021/06/21 07:51:10;;;;;;;;;;;24.30;71.00;;;;;;5111573;28;19943;-42
2021/06/21 07:53:37;;;;;;;;;;;24.30;71.00;;;;;;5129847;28;19986;-42
2021/06/21 07:56:06;;;;;;;;;;;24.30;71.00;;;;;;5129854;28;19980;-42
2021/06/21 07:58:33;;;;;;;;;;;24.30;71.00;;;;;;5121627;28;19942;-43
2021/06/21 08:00:59;;;;;;;;;;;24.30;71.00;;;;;;5108886;28;19927;-42
2021/06/21 08:03:25;;;;;;;;;;;24.30;71.00;;;;;;5109304;28;19908;-42
2021/06/21 08:05:51;;;;;;;;;;;24.30;71.00;;;;;;5109492;28;19987;-42
2021/06/21 08:08:17;;;;;;;;;;;24.30;71.00;;;;;;5109219;28;19915;-41
2021/06/21 08:10:43;;;;;;;;;;;24.30;71.00;;;;;;5112766;28;19928;-42
2021/06/21 08:13:09;;;;;;;;;;;24.30;70.90;;;;;;5128052;28;20328;-43
2021/06/21 08:15:35;;;;;;;;;;;24.30;71.00;;;;;;5125298;28;19908;-42
2021/06/21 08:18:03;;;;;;;;;;;24.30;71.10;;;;;;5126464;28;19918;-42
2021/06/21 08:20:30;;;;;;;;;;;24.20;71.00;;;;;;5126642;28;19918;-42
2021/06/21 08:22:55;;;;;;;;;;;24.20;71.00;;;;;;5126352;28;19915;-41
2021/06/21 08:25:21;;;;;;;;;;;24.20;71.00;;;;;;5126435;28;19911;-41
2021/06/21 08:27:48;;;;;;;;;;;24.20;71.10;;;;;;5126148;28;19908;-42
2021/06/21 08:30:14;;;;;;;;;;;24.20;71.00;;;;;;5126150;28;19914;-41
2021/06/21 08:32:41;;;;;;;;;;;24.20;71.00;;;;;;5117789;28;19915;-42
2021/06/21 08:35:10;;;;;;;;;;;24.20;71.10;;;;;;5125965;28;19904;-42
2021/06/21 08:37:36;;;;;;;;;;;24.20;71.10;;;;;;5107610;28;19918;-43
2021/06/21 08:40:05;;;;;;;;;;;24.10;71.00;;;;;;5126251;28;20641;-42
2021/06/21 08:42:31;;;;;;;;;;;24.10;71.00;;;;;;5126074;28;20340;-42
2021/06/21 08:44:58;;;;;;;;;;;24.10;71.00;;;;;;5125804;28;19915;-42
2021/06/21 08:47:23;;;;;;;;;;;24.10;71.00;;;;;;5125788;28;19914;-43
2021/06/21 08:49:49;;;;;;;;;;;24.10;71.10;;;;;;5125843;28;19907;-43
2021/06/21 08:52:17;;;;;;;;;;;24.10;71.00;;;;;;5107628;28;19915;-43
2021/06/21 08:54:43;;;;;;;;;;;24.10;71.00;;;;;;5125680;28;19911;-42
2021/06/21 08:57:09;;;;;;;;;;;24.10;71.10;;;;;;5125565;28;19924;-45
2021/06/21 08:59:36;;;;;;;;;;;24.10;71.00;;;;;;5108461;28;19916;-43
2021/06/21 09:02:02;;;;;;;;;;;24.10;71.00;;;;;;5086664;28;19916;-42
2021/06/21 09:04:28;;;;;;;;;;;24.10;71.00;;;;;;5105184;28;19968;-43
2021/06/21 09:07:03;;;;;;;;;;;24.10;71.10;;;;;;5105117;28;19908;-42
2021/06/21 09:09:38;;;;;;;;;;;24.10;71.10;;;;;;5086788;28;19912;-42
2021/06/21 09:12:04;;;;;;;;;;;24.10;71.10;;;;;;5119551;28;19978;-42
2021/06/21 09:14:30;;;;;;;;;;;24.10;71.10;;;;;;5125128;28;19915;-42
2021/06/21 09:17:07;;;;;;;;;;;24.10;71.10;;;;;;5125085;28;20021;-42
2021/06/21 09:19:47;;;;;;;;;;;24.10;71.10;;;;;;5125204;28;19903;-42
2021/06/21 09:22:32;;;;;;;;;;;24.10;71.10;;;;;;5125133;28;20357;-43
2021/06/21 09:25:06;;;;;;;;;;;24.10;71.10;;;;;;5124605;28;19911;-41
2021/06/21 09:27:32;;;;;;;;;;;24.10;71.20;;;;;;5125136;28;19911;-42
2021/06/21 09:30:05;;;;;;;;;;;24.10;71.10;;;;;;5104683;28;19910;-42
2021/06/21 09:32:45;;;;;;;;;;;24.10;71.10;;;;;;5123497;28;19908;-41
2021/06/21 09:35:11;;;;;;;;;;;24.10;71.00;;;;;;5124800;28;19978;-42
2021/06/21 09:37:44;;;;;;;;;;;24.10;71.10;;;;;;5125069;28;19933;-42
2021/06/21 09:40:10;;;;;;;;;;;24.10;71.10;;;;;;5125000;28;19908;-42
2021/06/21 09:42:36;;;;;;;;;;;24.10;71.00;;;;;;5106215;28;19971;-42
2021/06/21 09:45:02;;;;;;;;;;;24.10;71.10;;;;;;5124554;28;19916;-42
2021/06/21 09:47:29;;;;;;;;;;;24.10;71.10;;;;;;5124524;28;19904;-42
2021/06/21 09:50:09;;;;;;;;;;;24.00;71.00;;;;;;5124929;28;19914;-42
2021/06/21 09:52:36;;;;;;;;;;;24.00;71.00;;;;;;5130417;27;19929;-42
2021/06/21 09:55:09;;;;;;;;;;;24.00;71.00;;;;;;5144869;27;20620;-42
2021/06/21 09:57:36;;;;;;;;;;;24.00;71.10;;;;;;5144691;27;19922;-42
2021/06/21 10:00:04;;;;;;;;;;;24.00;71.10;;;;;;5124478;28;19927;-43
2021/06/21 10:02:29;;;;;;;;;;;24.00;71.00;;;;;;5105596;28;20647;-43
2021/06/21 10:04:55;;;;;;;;;;;24.00;71.00;;;;;;5104163;28;19984;-42
2021/06/21 10:07:30;;;;;;;;;;;24.00;71.10;;;;;;5103734;28;20378;-40
2021/06/21 10:10:10;;;;;;;;;;;24.00;71.00;;;;;;5104052;28;19908;-43
2021/06/21 10:12:36;;;;;;;;;;;24.00;71.10;;;;;;5103947;28;19908;-42
2021/06/21 10:15:02;;;;;;;;;;;24.00;71.00;;;;;;5110299;28;19904;-43
2021/06/21 10:17:28;;;;;;;;;;;24.00;71.00;;;;;;5123717;28;19922;-42
2021/06/21 10:19:54;;;;;;;;;;;24.00;71.00;;;;;;5124159;28;19978;-43
2021/06/21 10:22:22;;;;;;;;;;;24.00;71.00;;;;;;5123975;28;20493;-42
2021/06/21 10:24:49;;;;;;;;;;;24.00;71.00;;;;;;5122643;28;19914;-42
2021/06/21 10:27:15;;;;;;;;;;;24.10;71.10;;;;;;5123888;28;20600;-42
2021/06/21 10:29:41;;;;;;;;;;;24.00;71.00;;;;;;5123973;28;19908;-43
2021/06/21 10:32:07;;;;;;;;;;;24.00;71.00;;;;;;5105218;28;19911;-42
2021/06/21 10:34:33;;;;;;;;;;;24.00;71.00;;;;;;5105437;28;19918;-42
2021/06/21 10:36:58;;;;;;;;;;;24.00;71.00;;;;;;5123067;28;19971;-41
2021/06/21 10:39:25;;;;;;;;;;;24.00;71.00;;;;;;5123932;28;19907;-41
2021/06/21 10:42:10;;;;;;;;;;;24.00;71.00;;;;;;5123918;28;19955;-42
2021/06/21 10:44:39;;;;;;;;;;;24.00;71.00;;;;;;5123277;28;19911;-42
2021/06/21 10:47:24;;;;;;;;;;;24.00;71.00;;;;;;5123230;28;19907;-41
2021/06/21 10:49:59;;;;;;;;;;;24.00;71.00;;;;;;5122953;28;19907;-42
2021/06/21 10:52:34;;;;;;;;;;;24.00;71.00;;;;;;5112429;27;19907;-43
2021/06/21 10:55:19;;;;;;;;;;;24.00;71.00;;;;;;5144253;27;19907;-43
2021/06/21 10:57:44;;;;;;;;;;;24.00;71.00;;;;;;5123610;28;20394;-42
2021/06/21 11:00:12;;;;;;;;;;;24.00;71.00;;;;;;5123625;28;19993;-43
2021/06/21 11:02:38;;;;;;;;;;;24.00;71.00;;;;;;5123233;28;19904;-41
2021/06/21 11:05:04;;;;;;;;;;;24.00;71.00;;;;;;5123650;28;20015;-42
2021/06/21 11:07:30;;;;;;;;;;;24.00;71.00;;;;;;5123318;28;19962;-42
2021/06/21 11:09:58;;;;;;;;;;;24.00;71.00;;;;;;5105285;28;19907;-42
2021/06/21 11:12:24;;;;;;;;;;;24.00;71.00;;;;;;5123055;28;19937;-42
2021/06/21 11:15:11;;;;;;;;;;;24.00;71.00;;;;;;5123201;28;19907;-42
2021/06/21 11:17:46;;;;;;;;;;;24.00;71.00;;;;;;5122834;28;19912;-42
2021/06/21 11:20:39;;;;;;;;;;;24.00;71.00;;;;;;5123251;28;20320;-42
2021/06/21 11:23:06;;;;;;;;;;;24.00;70.90;;;;;;5119791;28;19908;-42
2021/06/21 11:25:33;;;;;;;;;;;24.00;70.90;;;;;;5123350;28;19912;-43
2021/06/21 11:28:00;;;;;;;;;;;24.00;71.00;;;;;;5123117;28;19918;-43
2021/06/21 11:30:30;;;;;;;;;;;24.00;71.00;;;;;;5123340;28;19939;-42
2021/06/21 11:32:57;;;;;;;;;;;24.00;71.00;;;;;;5123038;28;19932;-43
2021/06/21 11:35:42;;;;;;;;;;;24.00;71.00;;;;;;5104936;28;19961;-42
2021/06/21 11:38:21;;;;;;;;;;;24.00;71.00;;;;;;5123125;28;19924;-42
2021/06/21 11:40:47;;;;;;;;;;;24.00;71.00;;;;;;5119491;28;19908;-43
2021/06/21 11:43:13;;;;;;;;;;;24.00;70.90;;;;;;5102668;28;19910;-43
2021/06/21 11:45:56;;;;;;;;;;;24.00;70.90;;;;;;5102797;28;19908;-41
2021/06/21 11:48:26;;;;;;;;;;;24.00;70.90;;;;;;5126005;27;19937;-42
2021/06/21 11:50:53;;;;;;;;;;;24.00;71.00;;;;;;5146984;27;19907;-42
2021/06/21 11:53:19;;;;;;;;;;;24.00;70.90;;;;;;5147828;27;19907;-41
2021/06/21 11:55:45;;;;;;;;;;;24.00;70.90;;;;;;5147458;27;19911;-43
2021/06/21 11:58:11;;;;;;;;;;;24.00;70.90;;;;;;5123425;28;19911;-43
2021/06/21 12:00:38;;;;;;;;;;;24.00;70.90;;;;;;5123917;28;19927;-42
2021/06/21 12:03:04;;;;;;;;;;;24.00;70.90;;;;;;5105878;28;19908;-41
2021/06/21 12:05:30;;;;;;;;;;;24.00;70.90;;;;;;5106260;28;20538;-42
2021/06/21 12:07:56;;;;;;;;;;;24.00;70.80;;;;;;5106021;28;19939;-43
2021/06/21 12:10:22;;;;;;;;;;;24.00;70.90;;;;;;5106251;28;19908;-42
2021/06/21 12:12:52;;;;;;;;;;;24.00;70.80;;;;;;5106319;28;19930;-42
2021/06/21 12:15:28;;;;;;;;;;;24.00;70.80;;;;;;5106200;28;19920;-42
2021/06/21 12:17:55;;;;;;;;;;;24.00;70.80;;;;;;5105312;28;19920;-42
2021/06/21 12:20:21;;;;;;;;;;;24.00;70.90;;;;;;5107830;28;19908;-41
2021/06/21 12:22:52;;;;;;;;;;;24.00;70.90;;;;;;5125890;28;19973;-42
2021/06/21 12:25:22;;;;;;;;;;;24.00;71.50;;;;;;5126251;28;19925;-43
2021/06/21 12:27:48;;;;;;;;;;;24.00;70.90;;;;;;5126223;28;19911;-41
2021/06/21 12:30:14;;;;;;;;;;;24.00;70.80;;;;;;5126307;28;19908;-42
2021/06/21 12:32:41;;;;;;;;;;;24.00;70.90;;;;;;5105879;28;19914;-41
2021/06/21 12:35:07;;;;;;;;;;;24.00;70.90;;;;;;5105485;28;19927;-42
2021/06/21 12:37:36;;;;;;;;;;;24.00;70.90;;;;;;5087031;28;19955;-43
2021/06/21 12:40:12;;;;;;;;;;;24.00;70.90;;;;;;5105765;28;19927;-43
2021/06/21 12:42:38;;;;;;;;;;;24.00;70.80;;;;;;5105617;28;19915;-42
2021/06/21 12:45:07;;;;;;;;;;;24.00;70.80;;;;;;5105404;28;19946;-41
2021/06/21 12:47:33;;;;;;;;;;;24.00;70.80;;;;;;5086580;28;19911;-41
2021/06/21 12:50:06;;;;;;;;;;;24.00;70.80;;;;;;5105467;28;19908;-43
2021/06/21 12:52:33;;;;;;;;;;;24.00;70.70;;;;;;5134827;27;19916;-42
2021/06/21 12:55:05;;;;;;;;;;;24.00;70.70;;;;;;5107558;28;20370;-43
2021/06/21 12:57:43;;;;;;;;;;;24.00;70.70;;;;;;5125482;28;19915;-41
2021/06/21 13:00:09;;;;;;;;;;;24.00;70.70;;;;;;5104549;28;19920;-42
2021/06/21 13:02:37;;;;;;;;;;;24.00;70.70;;;;;;5124683;28;19920;-42
2021/06/21 13:05:10;;;;;;;;;;;24.10;70.80;;;;;;5125593;28;20012;-42
2021/06/21 13:07:36;;;;;;;;;;;24.10;70.80;;;;;;5124644;28;19939;-41
2021/06/21 13:10:02;;;;;;;;;;;24.10;70.90;;;;;;5125684;28;19908;-41
2021/06/21 13:12:29;;;;;;;;;;;24.10;70.90;;;;;;5125383;28;19914;-42
2021/06/21 13:15:15;;;;;;;;;;;24.10;70.90;;;;;;5125319;28;19904;-41
2021/06/21 13:17:44;;;;;;;;;;;24.10;70.80;;;;;;5124550;28;19915;-41
2021/06/21 13:20:10;;;;;;;;;;;24.10;70.80;;;;;;5124031;28;19904;-43
2021/06/21 13:22:44;;;;;;;;;;;24.10;70.80;;;;;;5106947;28;20344;-42
2021/06/21 13:25:17;;;;;;;;;;;24.10;70.80;;;;;;5125221;28;19908;-42
2021/06/21 13:27:59;;;;;;;;;;;24.10;70.80;;;;;;5124844;28;20357;-41
2021/06/21 13:30:38;;;;;;;;;;;24.10;70.80;;;;;;5125105;28;19903;-42
2021/06/21 13:33:07;;;;;;;;;;;24.10;70.80;;;;;;5124728;28;19914;-43
2021/06/21 13:35:34;;;;;;;;;;;24.10;71.50;;;;;;5125037;28;19907;-41
2021/06/21 13:37:59;;;;;;;;;;;24.10;70.80;;;;;;5124646;28;19961;-41
2021/06/21 13:40:26;;;;;;;;;;;24.10;70.80;;;;;;5124045;28;20018;-41
2021/06/21 13:42:56;;;;;;;;;;;24.20;71.10;;;;;;5104332;28;19908;-41
2021/06/21 13:45:28;;;;;;;;;;;24.20;71.20;;;;;;5104374;28;19904;-39
2021/06/21 13:47:58;;;;;;;;;;;24.20;71.20;;;;;;5108134;28;19963;-43
2021/06/21 13:50:29;;;;;;;;;;;24.20;71.30;;;;;;5124622;28;19908;-43
2021/06/21 13:52:55;;;;;;;;;;;24.20;71.40;;;;;;5136530;27;19908;-41
2021/06/21 13:55:21;;;;;;;;;;;24.20;71.60;;;;;;5124702;28;19993;-41
2021/06/21 13:57:48;;;;;;;;;;;24.30;71.50;;;;;;5124594;28;19915;-42
2021/06/21 14:00:33;;;;;;;;;;;24.30;71.70;;;;;;5124294;28;19920;-41
2021/06/21 14:03:00;;;;;;;;;;;24.30;71.80;;;;;;5124171;28;19934;-42
2021/06/21 14:05:26;;;;;;;;;;;24.30;71.80;;;;;;5124704;28;19914;-42
2021/06/21 14:07:53;;;;;;;;;;;24.30;72.00;;;;;;5105921;28;19951;-42
2021/06/21 14:10:19;;;;;;;;;;;24.30;72.00;;;;;;5123974;28;19974;-41
2021/06/21 14:12:45;;;;;;;;;;;24.40;73.00;;;;;;5123519;28;19904;-41
2021/06/21 14:15:11;;;;;;;;;;;24.40;72.30;;;;;;5123977;28;19979;-42
2021/06/21 14:17:38;;;;;;;;;;;24.40;72.00;;;;;;5123315;28;19911;-41
2021/06/21 14:20:04;;;;;;;;;;;24.50;71.70;;;;;;5123746;28;20377;-41
2021/06/21 14:22:30;;;;;;;;;;;24.50;72.10;;;;;;5123571;28;20406;-41